Time;durP1;ratioP1;P1;durP2;ratioP2;P2;SDS_P1;SDS_P2;PMS_P1;PMS_P2;Temp;Humidity;BMP_temperature;BMP_pressure;BME280_temperature;BME280_humidity;BME280_pressure;Samples;Min_cycle;Max_cycle;Signal;HPM_P1;HPM_P2
2023/08/14 07:26:53;;;;;;;;;;;;;;;;;;5916591;23;20007;-94
2023/08/14 07:29:19;;;;;;;;;;;;;;;;;;4981302;28;20332;-95
2023/08/14 07:31:44;;;;;;;;;;;;;;;;;;4981009;28;19997;-95
2023/08/14 07:34:09;;;;;;;;;;;;;;;;;;4981090;28;19920;-95
2023/08/14 07:36:35;;;;;;;;;;;;;;;;;;4997856;28;19921;-94
2023/08/14 07:39:00;;;;;;;;;;;;;;;;;;4981752;28;19913;-95
2023/08/14 07:41:25;;;;;;;;;;;;;;;;;;4981235;28;19984;-96
2023/08/14 09:04:01;;;;;;;;;;;;;;;;;;4956758;29;19918;-91
2023/08/14 09:06:26;;;;;;;;;;;;;;;;;;4957565;28;19918;-92
2023/08/14 09:08:52;;;;;;;;;;;;;;;;;;4940658;29;20043;-91
2023/08/14 09:11:17;;;;;;;;;;;;;;;;;;4958885;29;19914;-96
2023/08/14 09:13:43;;;;;;;;;;;;;;;;;;4940515;29;19914;-96
2023/08/14 09:16:08;;;;;;;;;;;;;;;;;;4940637;29;20357;-91
2023/08/14 09:18:33;;;;;;;;;;;;;;;;;;4940474;29;20377;-95
2023/08/14 09:21:01;;;;;;;;;;;;;;;;;;4940242;29;19922;-95
2023/08/14 09:23:26;;;;;;;;;;;;;;;;;;4957429;29;19915;-95
2023/08/14 09:25:52;;;;;;;;;;;;;;;;;;4957098;29;19918;-94
2023/08/14 09:28:17;;;;;;;;;;;;;;;;;;4940595;29;20392;-96
2023/08/14 09:30:43;;;;;;;;;;;;;;;;;;4939982;29;19921;-95
2023/08/14 09:33:09;;;;;;;;;;;;;;;;;;4957138;29;19914;-95
2023/08/14 09:35:35;;;;;;;;;;;;;;;;;;4957184;28;19921;-95
2023/08/14 09:38:00;;;;;;;;;;;;;;;;;;4957351;29;19915;-95
2023/08/14 09:40:26;;;;;;;;;;;;;;;;;;4939993;29;19969;-90
2023/08/14 09:42:54;;;;;;;;;;;;;;;;;;4956676;29;20365;-92
2023/08/14 09:45:23;;;;;;;;;;;;;;;;;;4939582;29;19914;-93
2023/08/14 09:47:49;;;;;;;;;;;;;;;;;;4942605;29;20432;-94
2023/08/14 09:50:15;;;;;;;;;;;;;;;;;;4939492;29;20022;-94
2023/08/14 09:52:41;;;;;;;;;;;;;;;;;;4939807;29;19991;-96
2023/08/14 09:55:07;;;;;;;;;;;;;;;;;;4939650;29;19915;-92
2023/08/14 09:57:32;;;;;;;;;;;;;;;;;;4956557;29;19918;-92
2023/08/14 09:59:58;;;;;;;;;;;;;;;;;;4956614;29;19969;-96
2023/08/14 10:02:24;;;;;;;;;;;;;;;;;;4958166;29;19917;-96
2023/08/14 10:04:50;;;;;;;;;;;;;;;;;;4924391;28;20009;-89
2023/08/14 10:07:16;;;;;;;;;;;;;;;;;;4956504;29;20419;-95
2023/08/14 10:09:44;;;;;;;;;;;;;;;;;;4962470;28;19915;-96
2023/08/14 10:12:11;;;;;;;;;;;;;;;;;;4942611;29;19918;-91
2023/08/14 10:14:37;;;;;;;;;;;;;;;;;;4957868;28;19960;-91
2023/08/14 10:17:04;;;;;;;;;;;;;;;;;;4941510;29;19915;-93
2023/08/14 10:19:30;;;;;;;;;;;;;;;;;;4939152;29;19965;-92
2023/08/14 10:21:58;;;;;;;;;;;;;;;;;;4958424;29;19918;-90
2023/08/14 10:24:23;;;;;;;;;;;;;;;;;;4940856;28;19919;-94
2023/08/14 10:26:49;;;;;;;;;;;;;;;;;;4956752;29;20432;-93
2023/08/14 10:29:15;;;;;;;;;;;;;;;;;;4957634;29;20393;-90
2023/08/14 10:31:41;;;;;;;;;;;;;;;;;;4943125;29;19914;-94
2023/08/14 10:34:07;;;;;;;;;;;;;;;;;;4956895;29;19914;-96
2023/08/14 10:36:34;;;;;;;;;;;;;;;;;;4956605;29;19926;-96
2023/08/14 10:44:16;;;;;;;;;;;;;;;;;;4988145;28;19922;-96
2023/08/14 10:46:42;;;;;;;;;;;;;;;;;;4979812;28;19961;-96
2023/08/14 10:49:11;;;;;;;;;;;;;;;;;;5004925;23;19925;-96
2023/08/14 10:51:39;;;;;;;;;;;;;;;;;;4989628;28;19917;-96
2023/08/14 10:54:09;;;;;;;;;;;;;;;;;;4992240;28;19917;-96
2023/08/14 10:56:42;;;;;;;;;;;;;;;;;;4979596;28;19916;-94
2023/08/14 10:59:18;;;;;;;;;;;;;;;;;;4979937;28;19914;-92
2023/08/14 11:01:43;;;;;;;;;;;;;;;;;;4979972;28;19910;-92
2023/08/14 11:04:09;;;;;;;;;;;;;;;;;;4998586;28;19920;-96
2023/08/14 11:06:56;;;;;;;;;;;;;;;;;;4993534;28;19898;-96
2023/08/14 11:09:27;;;;;;;;;;;;;;;;;;5023684;23;20564;-96
2023/08/14 11:11:57;;;;;;;;;;;;;;;;;;4960291;29;19922;-96
2023/08/14 11:14:22;;;;;;;;;;;;;;;;;;4956713;29;19914;-96
2023/08/14 11:16:51;;;;;;;;;;;;;;;;;;4943529;29;19926;-96
2023/08/14 11:19:17;;;;;;;;;;;;;;;;;;4957377;29;19914;-96
2023/08/14 11:21:45;;;;;;;;;;;;;;;;;;4956970;28;19921;-96
2023/08/14 11:24:11;;;;;;;;;;;;;;;;;;4959345;29;20399;-96
2023/08/14 11:26:36;;;;;;;;;;;;;;;;;;4957891;29;19934;-96
2023/08/14 11:29:02;;;;;;;;;;;;;;;;;;4955160;28;19938;-96
2023/08/14 11:31:28;;;;;;;;;;;;;;;;;;4961064;29;19914;-95
2023/08/14 11:33:53;;;;;;;;;;;;;;;;;;4959506;29;19915;-96
2023/08/14 11:36:18;;;;;;;;;;;;;;;;;;4958656;29;19915;-96
2023/08/14 11:38:44;;;;;;;;;;;;;;;;;;4958818;29;19914;-96
2023/08/14 11:41:15;;;;;;;;;;;;;;;;;;4963079;29;20444;-96
2023/08/14 11:44:06;;;;;;;;;;;;;;;;;;4969942;29;19914;-96
2023/08/14 11:49:07;;;;;;;;;;;;;;;;;;5567588;23;19922;-96
2023/08/14 11:51:34;;;;;;;;;;;;;;;;;;4981197;28;20006;-96
2023/08/14 11:54:00;;;;;;;;;;;;;;;;;;4962525;28;19965;-94
2023/08/14 11:56:26;;;;;;;;;;;;;;;;;;4964925;28;19914;-96
2023/08/14 11:58:52;;;;;;;;;;;;;;;;;;4978984;28;19960;-96
2023/08/14 12:01:17;;;;;;;;;;;;;;;;;;4962060;28;20321;-96
2023/08/14 12:03:43;;;;;;;;;;;;;;;;;;4961966;28;19914;-96
2023/08/14 12:06:08;;;;;;;;;;;;;;;;;;4962181;28;20369;-96
2023/08/14 12:08:34;;;;;;;;;;;;;;;;;;4961764;28;20044;-96
2023/08/14 12:10:59;;;;;;;;;;;;;;;;;;4961728;28;19914;-96
2023/08/14 12:13:24;;;;;;;;;;;;;;;;;;4961135;28;19918;-96
2023/08/14 12:15:50;;;;;;;;;;;;;;;;;;4961249;28;19920;-96
2023/08/14 12:18:22;;;;;;;;;;;;;;;;;;4961054;28;19914;-96
2023/08/14 12:20:51;;;;;;;;;;;;;;;;;;4960855;28;19914;-96
2023/08/14 12:23:16;;;;;;;;;;;;;;;;;;4960791;28;19914;-96
2023/08/14 12:25:42;;;;;;;;;;;;;;;;;;4960650;28;19960;-96
2023/08/14 12:28:07;;;;;;;;;;;;;;;;;;4960697;28;19914;-96
2023/08/14 12:30:32;;;;;;;;;;;;;;;;;;4960687;28;19941;-96
2023/08/14 12:32:58;;;;;;;;;;;;;;;;;;4960601;28;19918;-96
2023/08/14 12:35:23;;;;;;;;;;;;;;;;;;4960969;28;20001;-96
2023/08/14 12:37:49;;;;;;;;;;;;;;;;;;4962113;28;19918;-96
2023/08/14 12:40:14;;;;;;;;;;;;;;;;;;4961444;28;19918;-96
2023/08/14 12:42:39;;;;;;;;;;;;;;;;;;4960754;28;19914;-96
2023/08/14 12:45:05;;;;;;;;;;;;;;;;;;4961162;28;20356;-96
2023/08/14 12:47:31;;;;;;;;;;;;;;;;;;4961010;28;19914;-96
2023/08/14 12:49:56;;;;;;;;;;;;;;;;;;4960624;28;19918;-96
2023/08/14 12:52:22;;;;;;;;;;;;;;;;;;4961203;28;19914;-96
2023/08/14 12:54:48;;;;;;;;;;;;;;;;;;4979744;28;19917;-96
2023/08/14 12:57:13;;;;;;;;;;;;;;;;;;4981642;28;19977;-96
2023/08/14 12:59:39;;;;;;;;;;;;;;;;;;4965586;28;20253;-90
2023/08/14 13:02:04;;;;;;;;;;;;;;;;;;4976720;28;20013;-91
2023/08/14 13:04:30;;;;;;;;;;;;;;;;;;4976844;28;19914;-91
2023/08/14 13:06:55;;;;;;;;;;;;;;;;;;4976771;28;19914;-91
2023/08/14 13:09:20;;;;;;;;;;;;;;;;;;4976468;28;20349;-91
2023/08/14 13:11:46;;;;;;;;;;;;;;;;;;4959394;28;20013;-91
2023/08/14 13:14:11;;;;;;;;;;;;;;;;;;4959265;28;19914;-92
2023/08/14 13:16:36;;;;;;;;;;;;;;;;;;4976273;28;19921;-91
2023/08/14 13:19:02;;;;;;;;;;;;;;;;;;4958864;28;19918;-91
2023/08/14 13:21:27;;;;;;;;;;;;;;;;;;4958980;28;19969;-91
2023/08/14 13:23:52;;;;;;;;;;;;;;;;;;4958840;28;19918;-91
2023/08/14 13:26:18;;;;;;;;;;;;;;;;;;4958996;28;19914;-91
2023/08/14 13:28:43;;;;;;;;;;;;;;;;;;4976198;28;20008;-91
2023/08/14 13:31:09;;;;;;;;;;;;;;;;;;4976220;28;19957;-90
2023/08/14 13:33:35;;;;;;;;;;;;;;;;;;4976095;28;19921;-91
2023/08/14 13:36:00;;;;;;;;;;;;;;;;;;4958985;28;19918;-91
2023/08/14 13:38:26;;;;;;;;;;;;;;;;;;4976266;28;20361;-91
2023/08/14 13:40:51;;;;;;;;;;;;;;;;;;4958571;28;20335;-91
2023/08/14 13:43:17;;;;;;;;;;;;;;;;;;4959182;28;19914;-92
2023/08/14 13:45:42;;;;;;;;;;;;;;;;;;4976474;28;19996;-93
2023/08/14 13:48:07;;;;;;;;;;;;;;;;;;4976160;28;20008;-92
2023/08/14 13:50:33;;;;;;;;;;;;;;;;;;4959007;28;20315;-93
2023/08/14 13:52:58;;;;;;;;;;;;;;;;;;4975108;28;20321;-92
2023/08/14 13:55:25;;;;;;;;;;;;;;;;;;4958709;28;19914;-92
2023/08/14 13:57:50;;;;;;;;;;;;;;;;;;4958352;28;19921;-91
2023/08/14 14:00:16;;;;;;;;;;;;;;;;;;4975561;28;19918;-92
2023/08/14 14:02:41;;;;;;;;;;;;;;;;;;4958087;28;20014;-91
2023/08/14 14:05:06;;;;;;;;;;;;;;;;;;4958222;28;19917;-91
2023/08/14 14:07:32;;;;;;;;;;;;;;;;;;4958288;28;19914;-91
2023/08/14 14:09:57;;;;;;;;;;;;;;;;;;4958000;28;19921;-91
2023/08/14 14:12:22;;;;;;;;;;;;;;;;;;4975287;28;20361;-92
2023/08/14 14:14:48;;;;;;;;;;;;;;;;;;4958365;28;19914;-91
2023/08/14 14:17:13;;;;;;;;;;;;;;;;;;4958378;28;19918;-92
2023/08/14 14:19:41;;;;;;;;;;;;;;;;;;4975401;28;19914;-92
2023/08/14 14:22:07;;;;;;;;;;;;;;;;;;4957994;28;19982;-92
2023/08/14 14:24:32;;;;;;;;;;;;;;;;;;4975415;28;19961;-92
2023/08/14 14:26:58;;;;;;;;;;;;;;;;;;4957877;28;19914;-92
2023/08/14 14:29:25;;;;;;;;;;;;;;;;;;4975518;28;20412;-92
2023/08/14 14:31:50;;;;;;;;;;;;;;;;;;4957988;28;20313;-91
2023/08/14 14:34:16;;;;;;;;;;;;;;;;;;4975334;28;19914;-92
2023/08/14 14:36:41;;;;;;;;;;;;;;;;;;4958152;28;19917;-92
2023/08/14 14:39:07;;;;;;;;;;;;;;;;;;4958259;28;19918;-88
2023/08/14 14:41:32;;;;;;;;;;;;;;;;;;4975573;28;20345;-93
2023/08/14 14:43:57;;;;;;;;;;;;;;;;;;4958097;28;20001;-90
2023/08/14 14:46:22;;;;;;;;;;;;;;;;;;4974975;28;19921;-91
2023/08/14 14:48:48;;;;;;;;;;;;;;;;;;4957544;28;19990;-93
2023/08/14 14:51:13;;;;;;;;;;;;;;;;;;4957831;28;20346;-91
2023/08/14 14:53:38;;;;;;;;;;;;;;;;;;4958382;28;20365;-95
2023/08/14 14:56:04;;;;;;;;;;;;;;;;;;4975538;28;20337;-93
2023/08/14 14:58:29;;;;;;;;;;;;;;;;;;4957725;28;19929;-92
2023/08/14 15:00:54;;;;;;;;;;;;;;;;;;4959210;28;20364;-94
2023/08/14 15:03:20;;;;;;;;;;;;;;;;;;4977311;28;19910;-92
2023/08/14 15:05:49;;;;;;;;;;;;;;;;;;4960960;28;19921;-91
2023/08/14 15:08:14;;;;;;;;;;;;;;;;;;4978861;28;19910;-92
2023/08/14 15:10:39;;;;;;;;;;;;;;;;;;4978886;28;19921;-92
2023/08/14 15:13:05;;;;;;;;;;;;;;;;;;4961041;28;19918;-92
2023/08/14 15:15:30;;;;;;;;;;;;;;;;;;4978704;28;19941;-91
2023/08/14 15:17:55;;;;;;;;;;;;;;;;;;4961363;28;20008;-91
2023/08/14 15:20:20;;;;;;;;;;;;;;;;;;4978757;28;19913;-92
2023/08/14 15:22:46;;;;;;;;;;;;;;;;;;4961111;28;20281;-91
2023/08/14 15:25:11;;;;;;;;;;;;;;;;;;4961362;28;20285;-91
2023/08/14 15:27:40;;;;;;;;;;;;;;;;;;4978264;28;20284;-91
2023/08/14 15:30:05;;;;;;;;;;;;;;;;;;4978355;28;20012;-91
2023/08/14 15:32:31;;;;;;;;;;;;;;;;;;4978071;28;19972;-91
2023/08/14 15:34:56;;;;;;;;;;;;;;;;;;4978373;28;20289;-88
2023/08/14 15:37:22;;;;;;;;;;;;;;;;;;4978668;28;19965;-92
2023/08/14 15:39:49;;;;;;;;;;;;;;;;;;4961044;28;19914;-94
2023/08/14 15:42:14;;;;;;;;;;;;;;;;;;4961996;28;19921;-91
2023/08/14 15:44:40;;;;;;;;;;;;;;;;;;4964473;28;20316;-90
2023/08/14 15:47:05;;;;;;;;;;;;;;;;;;4977809;28;19965;-90
2023/08/14 15:49:30;;;;;;;;;;;;;;;;;;4960346;28;19918;-91
2023/08/14 15:51:56;;;;;;;;;;;;;;;;;;4978102;28;19968;-93
2023/08/14 15:54:21;;;;;;;;;;;;;;;;;;4977979;28;19949;-92
2023/08/14 15:56:46;;;;;;;;;;;;;;;;;;4977914;28;19914;-90
2023/08/14 15:59:11;;;;;;;;;;;;;;;;;;4977552;28;20016;-91
2023/08/14 16:01:37;;;;;;;;;;;;;;;;;;4960418;28;20054;-91
2023/08/14 16:04:02;;;;;;;;;;;;;;;;;;4978121;28;20265;-93
2023/08/14 16:06:28;;;;;;;;;;;;;;;;;;4960824;28;19914;-91
2023/08/14 16:08:53;;;;;;;;;;;;;;;;;;4977581;28;19918;-90
2023/08/14 16:11:18;;;;;;;;;;;;;;;;;;4977513;28;20004;-91
2023/08/14 16:13:43;;;;;;;;;;;;;;;;;;4960295;28;19925;-93
2023/08/14 16:16:09;;;;;;;;;;;;;;;;;;4959686;28;19936;-92
2023/08/14 16:18:35;;;;;;;;;;;;;;;;;;4960438;28;19914;-91
2023/08/14 16:21:03;;;;;;;;;;;;;;;;;;4960947;28;19921;-93
2023/08/14 16:23:28;;;;;;;;;;;;;;;;;;4960695;28;19918;-93
2023/08/14 16:25:53;;;;;;;;;;;;;;;;;;4960704;28;19918;-92
2023/08/14 16:28:19;;;;;;;;;;;;;;;;;;4977658;28;19948;-93
2023/08/14 16:30:44;;;;;;;;;;;;;;;;;;4960083;28;20338;-93
2023/08/14 16:33:10;;;;;;;;;;;;;;;;;;4977341;28;20433;-92
2023/08/14 16:35:35;;;;;;;;;;;;;;;;;;4960893;28;20013;-90
2023/08/14 16:38:00;;;;;;;;;;;;;;;;;;4977320;28;20261;-89
2023/08/14 16:40:26;;;;;;;;;;;;;;;;;;4962530;28;20280;-96
2023/08/14 16:42:51;;;;;;;;;;;;;;;;;;4965491;28;20280;-95
2023/08/14 16:45:17;;;;;;;;;;;;;;;;;;4960638;28;20391;-93
2023/08/14 16:47:42;;;;;;;;;;;;;;;;;;4977093;28;20365;-93
2023/08/14 16:50:08;;;;;;;;;;;;;;;;;;4959999;28;19918;-93
2023/08/14 16:52:34;;;;;;;;;;;;;;;;;;4977772;28;19925;-95
2023/08/14 16:55:00;;;;;;;;;;;;;;;;;;4960136;28;19918;-93
2023/08/14 16:57:26;;;;;;;;;;;;;;;;;;4959894;28;19914;-93
2023/08/14 16:59:51;;;;;;;;;;;;;;;;;;4959972;28;19924;-93
2023/08/14 17:02:16;;;;;;;;;;;;;;;;;;4960141;28;19914;-94
2023/08/14 17:04:42;;;;;;;;;;;;;;;;;;4959990;28;20274;-96
2023/08/14 17:07:07;;;;;;;;;;;;;;;;;;4962644;28;19985;-91
2023/08/14 17:09:33;;;;;;;;;;;;;;;;;;4962281;28;19914;-92
2023/08/14 17:11:58;;;;;;;;;;;;;;;;;;4962865;28;20001;-95
2023/08/14 17:14:25;;;;;;;;;;;;;;;;;;4978534;28;19956;-93
2023/08/14 17:16:50;;;;;;;;;;;;;;;;;;4978425;28;20345;-92
2023/08/14 17:19:17;;;;;;;;;;;;;;;;;;4944920;28;19918;-91
2023/08/14 17:21:44;;;;;;;;;;;;;;;;;;4961087;28;20008;-94
2023/08/14 17:24:10;;;;;;;;;;;;;;;;;;4979424;28;19914;-96
2023/08/14 17:26:35;;;;;;;;;;;;;;;;;;4962427;28;19969;-95
2023/08/14 17:29:21;;;;;;;;;;;;;;;;;;4999050;23;19902;-93
2023/08/14 17:32:29;;;;;;;;;;;;;;;;;;4974370;23;19953;-93
2023/08/14 17:35:25;;;;;;;;;;;;;;;;;;4922662;29;19932;-93
2023/08/14 17:37:54;;;;;;;;;;;;;;;;;;4923503;29;19918;-96
2023/08/14 17:40:19;;;;;;;;;;;;;;;;;;4958016;23;19922;-96
2023/08/14 17:42:45;;;;;;;;;;;;;;;;;;4959952;28;20369;-96
2023/08/14 17:45:10;;;;;;;;;;;;;;;;;;4985509;28;20264;-90
2023/08/14 17:47:38;;;;;;;;;;;;;;;;;;4962881;28;20325;-96
2023/08/14 17:50:03;;;;;;;;;;;;;;;;;;5000346;23;19929;-92
2023/08/14 17:52:31;;;;;;;;;;;;;;;;;;4966754;28;19922;-95
2023/08/14 17:54:56;;;;;;;;;;;;;;;;;;4960172;28;19914;-95
2023/08/14 17:57:21;;;;;;;;;;;;;;;;;;4959086;28;19914;-95
2023/08/14 17:59:47;;;;;;;;;;;;;;;;;;4959063;28;19956;-94
2023/08/14 18:02:12;;;;;;;;;;;;;;;;;;4959550;28;20265;-94
2023/08/14 18:04:37;;;;;;;;;;;;;;;;;;4976055;28;19914;-95
2023/08/14 18:07:03;;;;;;;;;;;;;;;;;;4975965;28;19936;-94
2023/08/14 18:09:28;;;;;;;;;;;;;;;;;;4976477;28;19917;-94
2023/08/14 18:11:53;;;;;;;;;;;;;;;;;;4958379;28;19914;-94
2023/08/14 18:14:19;;;;;;;;;;;;;;;;;;4975892;28;19914;-96
2023/08/14 18:16:44;;;;;;;;;;;;;;;;;;4976081;28;20001;-94
2023/08/14 18:19:09;;;;;;;;;;;;;;;;;;4977023;28;19929;-96
2023/08/14 18:21:35;;;;;;;;;;;;;;;;;;4985425;28;19920;-96
2023/08/14 18:24:02;;;;;;;;;;;;;;;;;;4976873;23;19961;-92
2023/08/14 18:26:44;;;;;;;;;;;;;;;;;;4993547;28;19925;-90
2023/08/14 18:29:10;;;;;;;;;;;;;;;;;;4994443;28;19918;-91
2023/08/14 18:32:00;;;;;;;;;;;;;;;;;;5008159;23;19929;-89
2023/08/14 18:34:27;;;;;;;;;;;;;;;;;;4935587;29;19986;-91
2023/08/14 18:36:55;;;;;;;;;;;;;;;;;;4934978;29;19918;-93
2023/08/14 18:39:21;;;;;;;;;;;;;;;;;;4937492;29;19911;-91
2023/08/14 18:42:04;;;;;;;;;;;;;;;;;;4943629;29;19910;-96
2023/08/14 18:44:31;;;;;;;;;;;;;;;;;;4980647;23;19921;-96
2023/08/14 18:46:59;;;;;;;;;;;;;;;;;;5005226;28;19929;-96
2023/08/14 18:49:30;;;;;;;;;;;;;;;;;;5001636;23;19913;-90
2023/08/14 18:52:18;;;;;;;;;;;;;;;;;;4994019;23;19929;-94
2023/08/14 18:54:54;;;;;;;;;;;;;;;;;;4998830;23;19906;-90
2023/08/14 18:57:41;;;;;;;;;;;;;;;;;;4965408;23;19977;-93
2023/08/14 19:00:22;;;;;;;;;;;;;;;;;;4962945;29;19929;-96
2023/08/14 19:03:04;;;;;;;;;;;;;;;;;;4979114;23;19974;-96
2023/08/14 19:05:29;;;;;;;;;;;;;;;;;;4961381;28;19968;-91
2023/08/14 19:07:55;;;;;;;;;;;;;;;;;;4961710;28;19918;-93
2023/08/14 19:10:20;;;;;;;;;;;;;;;;;;4961753;28;19936;-94
2023/08/14 19:12:45;;;;;;;;;;;;;;;;;;4961513;28;20373;-95
2023/08/14 19:15:11;;;;;;;;;;;;;;;;;;4979351;28;20357;-94
2023/08/14 19:17:36;;;;;;;;;;;;;;;;;;4961793;28;19969;-94
2023/08/14 19:20:01;;;;;;;;;;;;;;;;;;4962041;28;19914;-94
2023/08/14 19:22:27;;;;;;;;;;;;;;;;;;4962516;28;19914;-93
2023/08/14 19:24:52;;;;;;;;;;;;;;;;;;4945649;28;19925;-93
2023/08/14 19:27:18;;;;;;;;;;;;;;;;;;4961498;28;19914;-93
2023/08/14 19:29:43;;;;;;;;;;;;;;;;;;4978883;28;19914;-93
2023/08/14 19:32:08;;;;;;;;;;;;;;;;;;4979075;28;20480;-92
2023/08/14 19:34:33;;;;;;;;;;;;;;;;;;4961484;28;19969;-93
2023/08/14 19:36:59;;;;;;;;;;;;;;;;;;4961440;28;19917;-92
2023/08/14 19:39:24;;;;;;;;;;;;;;;;;;4961141;28;20284;-93
2023/08/14 19:41:49;;;;;;;;;;;;;;;;;;4961107;28;19914;-93
2023/08/14 19:44:15;;;;;;;;;;;;;;;;;;4960892;28;19921;-93
2023/08/14 19:46:40;;;;;;;;;;;;;;;;;;4978445;28;20001;-93
2023/08/14 19:49:06;;;;;;;;;;;;;;;;;;4960958;28;20352;-93
2023/08/14 19:51:32;;;;;;;;;;;;;;;;;;4959711;28;19966;-92
2023/08/14 19:53:57;;;;;;;;;;;;;;;;;;4961029;28;19914;-93
2023/08/14 19:56:22;;;;;;;;;;;;;;;;;;4960978;28;19996;-93
2023/08/14 19:58:49;;;;;;;;;;;;;;;;;;4978338;28;19964;-94
2023/08/14 20:01:14;;;;;;;;;;;;;;;;;;4977796;28;19960;-95
2023/08/14 20:03:42;;;;;;;;;;;;;;;;;;4961086;28;19921;-94
2023/08/14 20:06:09;;;;;;;;;;;;;;;;;;4962072;28;19914;-93
2023/08/14 20:08:34;;;;;;;;;;;;;;;;;;4978306;28;19968;-95
2023/08/14 20:11:01;;;;;;;;;;;;;;;;;;4960934;28;19985;-95
2023/08/14 20:13:27;;;;;;;;;;;;;;;;;;4960906;28;20348;-94
2023/08/14 20:15:52;;;;;;;;;;;;;;;;;;4961298;28;19997;-95
2023/08/14 20:18:17;;;;;;;;;;;;;;;;;;4960845;28;20329;-96
2023/08/14 20:20:43;;;;;;;;;;;;;;;;;;4961028;28;19914;-95
2023/08/14 20:23:09;;;;;;;;;;;;;;;;;;4960967;28;19958;-95
2023/08/14 20:25:35;;;;;;;;;;;;;;;;;;4960667;28;19914;-96
2023/08/14 20:28:01;;;;;;;;;;;;;;;;;;4960963;28;19918;-96
2023/08/14 20:30:26;;;;;;;;;;;;;;;;;;4960741;28;19965;-96
2023/08/14 20:32:52;;;;;;;;;;;;;;;;;;4960788;28;19921;-96
2023/08/14 20:35:18;;;;;;;;;;;;;;;;;;4960927;28;19913;-95
2023/08/14 20:37:43;;;;;;;;;;;;;;;;;;4960693;28;19914;-96
2023/08/14 20:40:11;;;;;;;;;;;;;;;;;;4960574;28;19968;-96
2023/08/14 20:42:37;;;;;;;;;;;;;;;;;;4960685;28;19914;-95
2023/08/14 20:45:02;;;;;;;;;;;;;;;;;;4961623;28;19956;-96
2023/08/14 20:47:28;;;;;;;;;;;;;;;;;;4961465;28;20250;-95
2023/08/14 20:49:53;;;;;;;;;;;;;;;;;;4960667;28;19914;-96
2023/08/14 20:52:22;;;;;;;;;;;;;;;;;;4960568;28;19920;-95
2023/08/14 20:54:51;;;;;;;;;;;;;;;;;;4960248;28;20011;-96
2023/08/14 20:57:16;;;;;;;;;;;;;;;;;;4961871;28;19922;-95
2023/08/14 20:59:42;;;;;;;;;;;;;;;;;;4959908;28;19914;-94
2023/08/14 21:02:07;;;;;;;;;;;;;;;;;;4959677;28;19914;-94
2023/08/14 21:04:36;;;;;;;;;;;;;;;;;;4959700;28;19924;-95
2023/08/14 21:07:02;;;;;;;;;;;;;;;;;;4977563;28;19920;-96
2023/08/14 21:09:27;;;;;;;;;;;;;;;;;;4959787;28;19917;-96
2023/08/14 21:11:53;;;;;;;;;;;;;;;;;;4959377;28;19918;-91
2023/08/14 21:14:18;;;;;;;;;;;;;;;;;;4959232;28;19976;-92
2023/08/14 21:16:44;;;;;;;;;;;;;;;;;;4959064;28;20412;-91
2023/08/14 21:19:09;;;;;;;;;;;;;;;;;;4958945;28;19921;-88
2023/08/14 21:21:34;;;;;;;;;;;;;;;;;;4976278;28;19914;-89
2023/08/14 21:24:00;;;;;;;;;;;;;;;;;;4976113;28;19910;-90
2023/08/14 21:26:25;;;;;;;;;;;;;;;;;;4976229;28;19925;-88
2023/08/14 21:28:50;;;;;;;;;;;;;;;;;;4976080;28;20056;-90
2023/08/14 21:31:15;;;;;;;;;;;;;;;;;;4976001;28;19918;-90
2023/08/14 21:33:41;;;;;;;;;;;;;;;;;;4976224;28;19914;-90
2023/08/14 21:36:06;;;;;;;;;;;;;;;;;;4975852;28;19933;-89
2023/08/14 21:38:32;;;;;;;;;;;;;;;;;;4960214;28;20014;-91
2023/08/14 21:41:00;;;;;;;;;;;;;;;;;;4956714;29;19918;-92
2023/08/14 21:43:26;;;;;;;;;;;;;;;;;;4939755;29;20110;-91
2023/08/14 21:45:51;;;;;;;;;;;;;;;;;;4956588;29;20450;-91
2023/08/14 21:48:17;;;;;;;;;;;;;;;;;;4956740;29;19918;-92
2023/08/14 21:50:42;;;;;;;;;;;;;;;;;;4956583;29;19969;-91
2023/08/14 21:53:07;;;;;;;;;;;;;;;;;;4956297;28;20016;-91
2023/08/14 21:55:32;;;;;;;;;;;;;;;;;;4956449;29;19922;-92
2023/08/14 21:57:58;;;;;;;;;;;;;;;;;;4939305;29;19914;-92
2023/08/14 22:00:23;;;;;;;;;;;;;;;;;;4956570;29;19915;-91
2023/08/14 22:02:48;;;;;;;;;;;;;;;;;;4939294;29;19922;-90
2023/08/14 22:05:14;;;;;;;;;;;;;;;;;;4956561;29;19918;-90
2023/08/14 22:07:39;;;;;;;;;;;;;;;;;;4956453;29;19914;-88
2023/08/14 22:10:05;;;;;;;;;;;;;;;;;;4938753;29;19918;-90
2023/08/14 22:12:30;;;;;;;;;;;;;;;;;;4939038;29;19974;-90
2023/08/14 22:14:55;;;;;;;;;;;;;;;;;;4938554;29;20288;-90
2023/08/14 22:17:21;;;;;;;;;;;;;;;;;;4956330;29;19915;-90
2023/08/14 22:19:49;;;;;;;;;;;;;;;;;;4956288;29;19921;-92
2023/08/14 22:22:14;;;;;;;;;;;;;;;;;;4938843;29;20031;-90
